createdAt,value
2022-09-12T00:01:55.284Z,9.80
2022-09-12T00:04:22.231Z,9.80
2022-09-12T00:06:49.294Z,9.70
2022-09-12T00:09:16.578Z,9.70
2022-09-12T00:11:46.393Z,9.70
2022-09-12T00:14:18.283Z,9.60
2022-09-12T00:16:45.600Z,9.60
2022-09-12T00:19:12.918Z,9.60
2022-09-12T00:21:41.666Z,9.60
2022-09-12T00:24:09.758Z,9.60
2022-09-12T00:26:37.203Z,9.70
2022-09-12T00:29:04.342Z,9.70
2022-09-12T00:31:31.580Z,9.70
2022-09-12T00:34:03.224Z,9.70
2022-09-12T00:36:30.705Z,9.80
2022-09-12T00:38:58.223Z,9.70
2022-09-12T00:41:39.715Z,9.70
2022-09-12T00:44:12.658Z,9.70
2022-09-12T00:46:50.855Z,9.70
2022-09-12T00:49:32.732Z,9.70
2022-09-12T00:52:08.075Z,9.70
2022-09-12T00:54:43.067Z,9.70
2022-09-12T00:57:13.448Z,9.70
2022-09-12T00:59:50.643Z,9.70
2022-09-12T01:02:17.832Z,9.70
2022-09-12T01:04:45.539Z,9.70
2022-09-12T01:07:15.440Z,9.70
2022-09-12T01:09:44.730Z,9.70
2022-09-12T01:12:14.678Z,9.60
2022-09-12T01:14:41.649Z,9.60
2022-09-12T01:17:12.915Z,9.50
2022-09-12T01:20:04.970Z,9.50
2022-09-12T01:23:02.969Z,9.40
2022-09-12T01:25:54.463Z,9.40
2022-09-12T01:28:53.427Z,9.40
2022-09-12T01:31:42.366Z,9.40
2022-09-12T01:34:41.063Z,9.40
2022-09-12T01:37:34.951Z,9.40
2022-09-12T01:40:23.447Z,9.40
2022-09-12T01:43:03.643Z,9.40
2022-09-12T01:45:44.753Z,9.40
2022-09-12T01:48:33.199Z,9.30
2022-09-12T01:51:09.330Z,9.30
2022-09-12T01:53:42.432Z,9.30
2022-09-12T01:56:22.519Z,9.30
2022-09-12T01:58:52.600Z,9.30
2022-09-12T02:01:28.048Z,9.20
2022-09-12T02:04:10.591Z,9.20
2022-09-12T02:06:50.076Z,9.20
2022-09-12T02:09:26.201Z,9.20
2022-09-12T02:11:58.198Z,9.20
2022-09-12T02:14:34.398Z,9.20
2022-09-12T02:17:12.020Z,9.30
2022-09-12T02:19:56.893Z,9.30
2022-09-12T02:22:27.281Z,9.30
2022-09-12T02:24:59.177Z,9.30
2022-09-12T02:27:49.458Z,9.30
2022-09-12T02:30:17.717Z,9.20
2022-09-12T02:33:00.906Z,9.30
2022-09-12T02:35:46.813Z,9.30
2022-09-12T02:38:24.723Z,9.30
2022-09-12T02:40:52.018Z,9.20
2022-09-12T02:43:18.993Z,9.20
2022-09-12T02:45:46.072Z,9.20
2022-09-12T02:48:26.414Z,9.20
2022-09-12T02:50:54.127Z,9.10
2022-09-12T02:53:21.306Z,9.10
2022-09-12T02:55:48.649Z,9.10
2022-09-12T02:58:20.977Z,9.10
2022-09-12T03:01:15.168Z,9.10
2022-09-12T03:04:14.638Z,9.10
2022-09-12T03:07:06.483Z,9.10
2022-09-12T03:09:46.364Z,9.10
2022-09-12T03:12:16.513Z,9.10
2022-09-12T03:14:55.917Z,9.10
2022-09-12T03:17:42.571Z,9.00
2022-09-12T03:20:18.188Z,9.00
2022-09-12T03:22:55.830Z,8.90
2022-09-12T03:25:28.659Z,8.90
2022-09-12T03:28:07.606Z,8.80
2022-09-12T03:30:49.003Z,8.80
2022-09-12T03:33:21.448Z,8.70
2022-09-12T03:35:49.312Z,8.70
2022-09-12T03:38:16.419Z,8.70
2022-09-12T03:40:43.594Z,8.70
2022-09-12T03:43:11.160Z,8.70
2022-09-12T03:45:38.406Z,8.70
2022-09-12T03:48:06.365Z,8.70
2022-09-12T03:50:33.974Z,8.70
2022-09-12T03:53:01.456Z,8.70
2022-09-12T03:55:28.498Z,8.70
2022-09-12T03:57:55.958Z,8.70
2022-09-12T04:00:24.375Z,8.70
2022-09-12T04:02:58.645Z,8.80
2022-09-12T04:05:26.382Z,8.70
2022-09-12T04:07:53.354Z,8.70
2022-09-12T04:10:20.570Z,8.70
2022-09-12T04:12:47.590Z,8.70
2022-09-12T04:15:14.706Z,8.70
2022-09-12T04:17:41.673Z,8.80
2022-09-12T04:20:08.946Z,8.80
2022-09-12T04:22:35.885Z,8.80
2022-09-12T04:25:04.101Z,8.80
2022-09-12T04:27:31.149Z,8.80
2022-09-12T04:29:59.627Z,8.80
2022-09-12T04:32:26.626Z,8.80
2022-09-12T04:34:53.607Z,8.70
2022-09-12T04:37:21.345Z,8.70
2022-09-12T04:39:49.612Z,8.70
2022-09-12T04:42:16.853Z,8.60
2022-09-12T04:44:44.058Z,8.60
2022-09-12T04:47:11.047Z,8.60
2022-09-12T04:49:37.968Z,8.60
2022-09-12T04:52:05.095Z,8.50
2022-09-12T04:54:32.173Z,8.50
2022-09-12T04:56:59.715Z,8.50
2022-09-12T04:59:27.804Z,8.50
2022-09-12T05:01:54.876Z,8.60
2022-09-12T05:04:21.895Z,8.60
2022-09-12T05:06:48.834Z,8.60
2022-09-12T05:09:16.635Z,8.60
2022-09-12T05:12:04.296Z,8.60
2022-09-12T05:14:33.240Z,8.50
2022-09-12T05:17:01.847Z,8.50
2022-09-12T05:19:30.702Z,8.60
2022-09-12T05:21:57.996Z,8.70
2022-09-12T05:24:25.282Z,8.80
2022-09-12T05:26:52.529Z,8.90
2022-09-12T05:29:20.059Z,9.00
2022-09-12T05:31:50.225Z,9.20
2022-09-12T05:34:17.189Z,9.30
2022-09-12T05:36:44.090Z,9.40
2022-09-12T05:39:11.007Z,9.50
2022-09-12T05:41:38.537Z,9.60
2022-09-12T05:44:07.101Z,9.70
2022-09-12T05:46:39.531Z,9.90
2022-09-12T05:49:11.961Z,10.00
2022-09-12T05:51:41.905Z,10.20
2022-09-12T05:54:12.215Z,10.30
2022-09-12T05:56:41.528Z,10.50
2022-09-12T05:59:17.563Z,10.60
2022-09-12T06:01:45.469Z,10.80
2022-09-12T06:04:12.796Z,10.90
2022-09-12T06:06:45.079Z,11.00
2022-09-12T06:09:14.187Z,11.10
2022-09-12T06:11:41.207Z,11.20
2022-09-12T06:14:10.215Z,11.40
2022-09-12T06:16:37.917Z,11.60
2022-09-12T06:19:07.482Z,11.80
2022-09-12T06:21:39.987Z,12.00
2022-09-12T06:24:07.747Z,12.20
2022-09-12T06:26:34.949Z,12.90
2022-09-12T06:29:02.334Z,14.00
2022-09-12T06:31:33.242Z,15.40
2022-09-12T06:34:02.625Z,16.70
2022-09-12T06:36:32.104Z,17.90
2022-09-12T06:39:01.430Z,18.90
2022-09-12T06:41:29.353Z,20.00
2022-09-12T06:43:56.830Z,21.10
2022-09-12T06:46:24.567Z,21.00
2022-09-12T06:48:51.938Z,21.80
2022-09-12T06:51:22.866Z,22.10
2022-09-12T06:53:50.934Z,22.60
2022-09-12T06:56:20.225Z,22.90
2022-09-12T06:58:48.883Z,23.50
2022-09-12T07:01:18.377Z,23.90
2022-09-12T07:03:50.431Z,24.20
2022-09-12T07:06:19.489Z,24.30
2022-09-12T07:08:47.382Z,24.30
2022-09-12T07:11:19.154Z,24.70
2022-09-12T07:13:48.363Z,24.70
2022-09-12T07:16:19.437Z,24.30
2022-09-12T07:19:00.787Z,24.50
2022-09-12T07:21:28.814Z,24.50
2022-09-12T07:23:57.919Z,24.20
2022-09-12T07:26:29.861Z,24.30
2022-09-12T07:29:13.184Z,24.10
2022-09-12T07:31:46.431Z,24.20
2022-09-12T07:34:14.047Z,24.20
2022-09-12T07:36:41.009Z,23.90
2022-09-12T07:39:07.941Z,24.30
2022-09-12T07:41:34.955Z,24.00
2022-09-12T07:44:03.614Z,24.00
2022-09-12T07:46:31.908Z,24.30
2022-09-12T07:49:00.744Z,24.10
2022-09-12T07:51:30.203Z,24.30
2022-09-12T07:53:57.695Z,24.80
2022-09-12T07:56:29.712Z,24.50
2022-09-12T07:58:59.054Z,24.90
2022-09-12T08:01:26.776Z,25.10
2022-09-12T08:03:57.359Z,24.70
2022-09-12T08:06:25.119Z,24.40
2022-09-12T08:08:54.310Z,24.30
2022-09-12T08:11:22.366Z,24.60
2022-09-12T08:13:55.063Z,24.30
2022-09-12T08:16:27.390Z,24.20
2022-09-12T08:18:54.698Z,24.20
2022-09-12T08:21:27.914Z,24.00
2022-09-12T08:23:57.898Z,23.80
2022-09-12T08:26:25.215Z,24.00
2022-09-12T08:28:53.528Z,24.40
2022-09-12T08:31:22.339Z,24.60
2022-09-12T08:33:49.434Z,24.70
2022-09-12T08:36:22.712Z,24.70
2022-09-12T08:38:53.682Z,24.50
2022-09-12T08:41:40.748Z,24.60
2022-09-12T08:44:08.298Z,24.10
2022-09-12T08:47:02.850Z,24.10
2022-09-12T08:50:02.626Z,24.20
2022-09-12T08:53:02.487Z,24.00
2022-09-12T08:55:43.390Z,23.90
2022-09-12T08:58:28.614Z,23.50
2022-09-12T09:01:21.580Z,23.10
2022-09-12T09:04:09.641Z,22.40
2022-09-12T09:07:14.608Z,22.20
2022-09-12T09:09:50.661Z,22.10
2022-09-12T09:12:40.854Z,22.80
2022-09-12T09:15:22.103Z,22.50
2022-09-12T09:17:58.861Z,22.70
2022-09-12T09:20:44.178Z,22.80
2022-09-12T09:23:35.492Z,22.70
2022-09-12T09:26:26.773Z,22.50
2022-09-12T09:29:11.577Z,23.10
2022-09-12T09:31:39.735Z,22.70
2022-09-12T09:34:15.498Z,22.40
2022-09-12T09:36:48.479Z,22.10
2022-09-12T09:39:30.270Z,22.50
2022-09-12T09:42:05.594Z,22.40
2022-09-12T09:44:33.010Z,22.40
2022-09-12T09:47:00.936Z,22.80
2022-09-12T09:49:31.434Z,22.40
2022-09-12T09:52:01.161Z,22.30
2022-09-12T09:54:57.750Z,22.30
2022-09-12T09:57:37.211Z,22.10
2022-09-12T10:00:32.093Z,22.10
2022-09-12T10:03:13.726Z,22.00
2022-09-12T10:06:02.987Z,22.10
2022-09-12T10:08:35.535Z,22.50
2022-09-12T10:11:27.125Z,22.60
2022-09-12T10:13:58.421Z,22.90
2022-09-12T10:16:34.700Z,23.00
2022-09-12T10:19:03.374Z,22.80
2022-09-12T10:21:41.266Z,22.80
2022-09-12T10:24:27.186Z,22.90
2022-09-12T10:26:57.091Z,23.10
2022-09-12T10:29:32.230Z,23.50
2022-09-12T10:32:06.219Z,23.40
2022-09-12T10:34:53.774Z,23.30
2022-09-12T10:37:31.171Z,23.50
2022-09-12T10:40:00.416Z,23.60
2022-09-12T10:42:45.762Z,23.40
2022-09-12T10:45:30.063Z,23.10
2022-09-12T10:47:58.977Z,23.40
2022-09-12T10:50:31.062Z,23.70
2022-09-12T10:53:18.239Z,23.40
2022-09-12T10:56:10.188Z,23.30
2022-09-12T10:59:02.312Z,23.40
2022-09-12T11:01:32.230Z,23.70
2022-09-12T11:04:08.255Z,23.80
2022-09-12T11:06:39.246Z,23.80
2022-09-12T11:09:13.666Z,24.20
2022-09-12T11:11:49.676Z,24.00
2022-09-12T11:14:36.843Z,23.40
2022-09-12T11:17:30.092Z,23.70
2022-09-12T11:20:04.977Z,24.20
2022-09-12T11:23:02.096Z,24.00
2022-09-12T11:25:51.049Z,24.20
2022-09-12T11:28:55.683Z,24.90
2022-09-12T11:31:38.810Z,24.90
2022-09-12T11:34:10.918Z,25.10
2022-09-12T11:36:50.071Z,24.30
2022-09-12T11:39:34.774Z,24.40
2022-09-12T11:42:05.643Z,24.70
2022-09-12T11:44:43.966Z,24.40
2022-09-12T11:47:13.672Z,24.30
2022-09-12T11:49:50.812Z,24.60
2022-09-12T11:52:22.819Z,24.90
2022-09-12T11:55:04.040Z,24.60
2022-09-12T11:57:49.429Z,24.40
2022-09-12T12:00:22.017Z,24.40
2022-09-12T12:03:05.258Z,24.70
2022-09-12T12:05:42.570Z,24.90
2022-09-12T12:08:11.215Z,24.70
2022-09-12T12:11:05.789Z,24.70
2022-09-12T12:13:46.893Z,25.10
2022-09-12T12:16:41.765Z,25.70
2022-09-12T12:19:19.187Z,25.90
2022-09-12T12:21:51.078Z,25.90
2022-09-12T12:24:25.130Z,26.20
2022-09-12T12:26:58.763Z,25.90
2022-09-12T12:29:32.875Z,25.60
2022-09-12T12:31:59.628Z,25.80
2022-09-12T12:34:38.021Z,25.60
2022-09-12T12:37:20.217Z,25.50
2022-09-12T12:39:48.375Z,25.50
2022-09-12T12:42:34.248Z,25.00
2022-09-12T12:45:18.085Z,24.90
2022-09-12T12:48:08.238Z,24.90
2022-09-12T12:50:35.746Z,25.30
2022-09-12T12:53:17.244Z,25.30
2022-09-12T12:55:44.145Z,25.30
2022-09-12T12:58:32.945Z,25.20
2022-09-12T13:01:11.205Z,24.70
2022-09-12T13:03:41.688Z,24.30
2022-09-12T13:06:20.059Z,24.30
2022-09-12T13:09:00.226Z,24.70
2022-09-12T13:11:39.922Z,25.00
2022-09-12T13:14:27.945Z,25.20
2022-09-12T13:16:59.337Z,24.90
2022-09-12T13:19:32.643Z,25.30
2022-09-12T13:22:08.700Z,25.90
2022-09-12T13:24:52.630Z,25.60
2022-09-12T13:27:19.744Z,25.40
2022-09-12T13:29:46.818Z,25.30
2022-09-12T13:32:15.243Z,25.20
2022-09-12T13:34:56.629Z,24.80
2022-09-12T13:37:40.394Z,24.70
2022-09-12T13:40:13.391Z,24.50
2022-09-12T13:42:48.708Z,24.60
2022-09-12T13:45:29.513Z,24.80
2022-09-12T13:48:04.298Z,24.50
2022-09-12T13:50:50.230Z,24.50
2022-09-12T13:53:20.798Z,24.50
2022-09-12T13:55:52.086Z,24.90
2022-09-12T13:58:34.062Z,25.60
2022-09-12T14:01:21.619Z,25.80
2022-09-12T14:04:13.747Z,25.50
2022-09-12T14:06:49.712Z,26.10
2022-09-12T14:09:25.492Z,26.50
2022-09-12T14:11:53.159Z,26.40
2022-09-12T14:14:36.667Z,26.70
2022-09-12T14:17:24.018Z,26.90
2022-09-12T14:19:52.923Z,27.60
2022-09-12T14:22:20.367Z,28.10
2022-09-12T14:24:50.593Z,28.40
2022-09-12T14:27:28.865Z,27.90
2022-09-12T14:30:07.562Z,27.60
2022-09-12T14:32:34.603Z,27.20
2022-09-12T14:35:20.797Z,26.80
2022-09-12T14:37:50.355Z,26.50
2022-09-12T14:40:20.687Z,26.30
2022-09-12T14:42:50.562Z,26.00
2022-09-12T14:45:32.285Z,25.80
2022-09-12T14:47:59.533Z,25.10
2022-09-12T14:50:29.792Z,24.90
2022-09-12T14:53:27.734Z,24.90
2022-09-12T14:56:05.122Z,24.70
2022-09-12T14:58:32.114Z,25.00
2022-09-12T15:01:08.546Z,25.10
2022-09-12T15:03:37.122Z,25.30
2022-09-12T15:06:08.161Z,25.60
2022-09-12T15:08:35.301Z,25.90
2022-09-12T15:11:02.695Z,25.50
2022-09-12T15:13:38.672Z,25.40
2022-09-12T15:16:09.187Z,25.50
2022-09-12T15:18:36.339Z,25.50
2022-09-12T15:21:05.760Z,25.90
2022-09-12T15:23:40.394Z,26.00
2022-09-12T15:26:08.438Z,25.70
2022-09-12T15:28:35.481Z,25.50
2022-09-12T15:31:08.319Z,25.40
2022-09-12T15:33:35.459Z,25.10
2022-09-12T15:36:02.883Z,25.00
2022-09-12T15:38:29.894Z,24.90
2022-09-12T15:40:56.883Z,25.30
2022-09-12T15:43:26.290Z,25.30
2022-09-12T15:45:53.591Z,25.90
2022-09-12T15:48:21.177Z,25.80
2022-09-12T15:50:48.581Z,25.70
2022-09-12T15:53:16.959Z,25.20
2022-09-12T15:55:44.431Z,25.30
2022-09-12T15:58:12.129Z,25.50
2022-09-12T16:00:39.107Z,25.60
2022-09-12T16:03:06.530Z,25.50
2022-09-12T16:05:33.569Z,25.30
2022-09-12T16:08:00.473Z,25.30
2022-09-12T16:10:30.367Z,24.60
2022-09-12T16:12:57.963Z,24.80
2022-09-12T16:15:26.144Z,24.80
2022-09-12T16:17:53.534Z,24.80
2022-09-12T16:20:22.240Z,24.50
2022-09-12T16:22:49.432Z,24.50
2022-09-12T16:25:17.457Z,24.50
2022-09-12T16:27:44.903Z,24.60
2022-09-12T16:30:13.357Z,24.50
2022-09-12T16:32:40.483Z,24.50
2022-09-12T16:35:08.544Z,24.50
2022-09-12T16:37:35.749Z,24.30
2022-09-12T16:40:06.857Z,24.50
2022-09-12T16:42:34.090Z,24.40
2022-09-12T16:45:01.066Z,24.10
2022-09-12T16:47:32.216Z,23.80
2022-09-12T16:49:59.732Z,23.50
2022-09-12T16:52:27.378Z,22.70
2022-09-12T16:54:54.327Z,22.50
2022-09-12T16:57:21.286Z,22.10
2022-09-12T16:59:48.234Z,21.50
2022-09-12T17:02:15.628Z,21.10
2022-09-12T17:04:42.676Z,20.60
2022-09-12T17:07:10.191Z,20.20
2022-09-12T17:09:37.207Z,19.90
2022-09-12T17:12:04.387Z,19.60
2022-09-12T17:14:31.366Z,19.30
2022-09-12T17:16:58.439Z,19.10
2022-09-12T17:19:28.208Z,18.80
2022-09-12T17:21:55.671Z,18.60
2022-09-12T17:24:23.196Z,18.30
2022-09-12T17:26:51.157Z,18.10
2022-09-12T17:29:18.255Z,17.80
2022-09-12T17:31:46.127Z,17.60
2022-09-12T17:34:17.824Z,17.30
2022-09-12T17:36:46.581Z,17.10
2022-09-12T17:39:14.135Z,16.80
2022-09-12T17:41:42.930Z,16.60
2022-09-12T17:44:15.711Z,16.40
2022-09-12T17:46:43.353Z,16.20
2022-09-12T17:49:16.074Z,16.00
2022-09-12T17:51:44.019Z,15.90
2022-09-12T17:54:15.795Z,15.90
2022-09-12T17:56:44.405Z,15.70
2022-09-12T17:59:15.475Z,15.60
2022-09-12T18:02:01.129Z,15.40
2022-09-12T18:04:28.261Z,15.30
2022-09-12T18:06:57.592Z,15.20
2022-09-12T18:09:28.045Z,15.10
2022-09-12T18:11:55.402Z,15.00
2022-09-12T18:14:22.755Z,14.90
2022-09-12T18:16:50.452Z,14.90
2022-09-12T18:19:17.695Z,14.90
2022-09-12T18:21:44.812Z,14.80
2022-09-12T18:24:12.510Z,14.70
2022-09-12T18:26:39.720Z,14.60
2022-09-12T18:29:07.170Z,14.60
2022-09-12T18:31:34.200Z,14.60
2022-09-12T18:34:02.579Z,14.60
2022-09-12T18:36:30.343Z,14.50
2022-09-12T18:38:58.919Z,14.40
2022-09-12T18:41:26.879Z,14.30
2022-09-12T18:43:59.354Z,14.20
2022-09-12T18:46:28.450Z,14.20
2022-09-12T18:48:58.051Z,14.10
2022-09-12T18:51:31.632Z,14.10
2022-09-12T18:54:07.225Z,14.10
2022-09-12T18:56:37.759Z,14.00
2022-09-12T18:59:06.190Z,14.00
2022-09-12T19:01:38.360Z,14.00
2022-09-12T19:04:07.761Z,14.00
2022-09-12T19:06:37.655Z,14.00
2022-09-12T19:09:08.304Z,14.00
2022-09-12T19:11:38.248Z,14.00
2022-09-12T19:14:05.758Z,14.00
2022-09-12T19:16:32.806Z,14.00
2022-09-12T19:18:59.886Z,14.10
2022-09-12T19:21:28.584Z,14.10
2022-09-12T19:24:04.851Z,14.00
2022-09-12T19:26:33.216Z,13.90
2022-09-12T19:29:02.615Z,13.90
2022-09-12T19:31:32.154Z,13.90
2022-09-12T19:34:01.625Z,13.90
2022-09-12T19:36:46.317Z,13.90
2022-09-12T19:39:15.480Z,14.00
2022-09-12T19:41:42.777Z,14.00
2022-09-12T19:44:09.839Z,14.00
2022-09-12T19:46:36.797Z,14.00
2022-09-12T19:49:04.052Z,13.90
2022-09-12T19:51:31.635Z,13.90
2022-09-12T19:53:58.866Z,13.80
2022-09-12T19:56:25.882Z,13.80
2022-09-12T19:58:56.436Z,13.70
2022-09-12T20:01:28.777Z,13.60
2022-09-12T20:03:57.234Z,13.50
2022-09-12T20:06:24.763Z,13.40
2022-09-12T20:08:51.975Z,13.30
2022-09-12T20:11:21.512Z,13.40
2022-09-12T20:13:48.434Z,13.40
2022-09-12T20:16:21.970Z,13.40
2022-09-12T20:18:53.815Z,13.40
2022-09-12T20:21:25.124Z,13.40
2022-09-12T20:23:52.762Z,13.40
2022-09-12T20:26:20.640Z,13.40
2022-09-12T20:28:47.844Z,13.40
2022-09-12T20:31:16.447Z,13.30
2022-09-12T20:33:45.819Z,13.30
2022-09-12T20:36:17.377Z,13.30
2022-09-12T20:38:49.733Z,13.40
2022-09-12T20:41:17.582Z,13.50
2022-09-12T20:43:44.526Z,13.40
2022-09-12T20:46:12.196Z,13.40
2022-09-12T20:48:39.641Z,13.40
2022-09-12T20:51:07.484Z,13.30
2022-09-12T20:53:35.443Z,13.20
2022-09-12T20:56:05.351Z,13.20
2022-09-12T20:58:32.734Z,13.20
2022-09-12T21:01:00.721Z,13.20
2022-09-12T21:03:27.674Z,13.20
2022-09-12T21:05:54.561Z,13.30
2022-09-12T21:08:21.526Z,13.40
2022-09-12T21:10:48.471Z,13.40
2022-09-12T21:13:15.387Z,13.50
2022-09-12T21:15:42.943Z,13.50
2022-09-12T21:18:09.927Z,13.60
2022-09-12T21:20:36.894Z,13.50
2022-09-12T21:23:03.911Z,13.50
2022-09-12T21:25:30.915Z,13.50
2022-09-12T21:27:57.965Z,13.60
2022-09-12T21:30:24.978Z,13.50
2022-09-12T21:32:51.869Z,13.50
2022-09-12T21:35:18.826Z,13.50
2022-09-12T21:37:45.823Z,13.50
2022-09-12T21:40:12.799Z,13.40
2022-09-12T21:42:39.735Z,13.40
2022-09-12T21:45:07.100Z,13.30
2022-09-12T21:47:34.022Z,13.30
2022-09-12T21:50:00.967Z,13.20
2022-09-12T21:52:28.230Z,13.20
2022-09-12T21:54:56.521Z,13.10
2022-09-12T21:57:23.527Z,13.00
2022-09-12T21:59:50.469Z,12.90
2022-09-12T22:02:17.392Z,12.90
2022-09-12T22:04:44.334Z,12.80
2022-09-12T22:07:11.442Z,12.70
2022-09-12T22:09:38.411Z,12.60
2022-09-12T22:12:05.434Z,12.50
2022-09-12T22:14:32.398Z,12.60
2022-09-12T22:16:59.403Z,12.60
2022-09-12T22:19:26.866Z,12.50
2022-09-12T22:22:12.162Z,12.50
2022-09-12T22:24:39.180Z,12.50
2022-09-12T22:27:06.839Z,12.50
2022-09-12T22:29:34.505Z,12.50
2022-09-12T22:32:01.613Z,12.50
2022-09-12T22:34:29.354Z,12.40
2022-09-12T22:36:56.863Z,12.40
2022-09-12T22:39:24.578Z,12.40
2022-09-12T22:41:51.536Z,12.40
2022-09-12T22:44:18.479Z,12.40
2022-09-12T22:46:45.454Z,12.30
2022-09-12T22:49:12.967Z,12.30
2022-09-12T22:51:40.100Z,12.30
2022-09-12T22:54:07.481Z,12.20
2022-09-12T22:56:34.618Z,12.20
2022-09-12T22:59:01.874Z,12.20
2022-09-12T23:01:29.018Z,12.20
2022-09-12T23:03:56.231Z,12.20
2022-09-12T23:06:23.190Z,12.20
2022-09-12T23:08:50.127Z,12.10
2022-09-12T23:11:19.324Z,12.00
2022-09-12T23:13:48.011Z,12.00
2022-09-12T23:16:23.821Z,12.10
2022-09-12T23:18:51.417Z,12.20
2022-09-12T23:21:20.668Z,12.20
2022-09-12T23:23:48.004Z,12.10
2022-09-12T23:26:17.955Z,12.10
2022-09-12T23:28:54.040Z,12.10
2022-09-12T23:31:25.798Z,12.10
2022-09-12T23:33:54.197Z,12.20
2022-09-12T23:36:22.471Z,12.10
2022-09-12T23:38:49.935Z,12.00
2022-09-12T23:41:18.643Z,12.00
2022-09-12T23:43:45.842Z,12.00
2022-09-12T23:46:14.499Z,12.00
2022-09-12T23:48:42.439Z,12.00
2022-09-12T23:51:10.347Z,12.00
2022-09-12T23:53:37.821Z,12.00
2022-09-12T23:56:05.869Z,12.00
2022-09-12T23:58:33.325Z,12.00
